Sunday, February 17, 2019, 8:33 PM GMT
Back to Local

CYSC, Sherbrooke, Que.

Location: , , Canada Lat: 45.4
Local Time: 8:33 PM GMT (20:33 GMT) Lon: -71.883
Time Zone: GMT Elev: 557 ft

Show me the last for .
Show Decoded

2019-02-17 20:00 METAR CYSC 172000Z AUTO 27005KT 240V330 9SM FEW250 M09/M18 A3007 RMK SLP202 =
2019-02-17 19:00 METAR CYSC 171900Z AUTO 27007KT 9SM FEW250 M10/M19 A3008 RMK SLP207 =
2019-02-17 18:00 METAR CYSC 171800Z AUTO 25007KT 9SM FEW250 M10/M18 A3011 RMK SLP217 =
2019-02-17 17:00 METAR CYSC 171700Z AUTO 28005KT 210V300 9SM FEW250 M11/M18 A3012 RMK SLP220 =
2019-02-17 16:00 METAR CYSC 171600Z AUTO 27007KT 220V280 9SM CLR M12/M18 A3014 RMK SLP226 =
2019-02-17 15:00 METAR CYSC 171500Z AUTO VRB02KT 9SM FEW250 M13/M19 A3014 RMK SLP228 =
2019-02-17 14:00 METAR CYSC 171400Z AUTO VRB02KT 9SM FEW250 M15/M19 A3016 RMK SLP233 =
2019-02-17 13:00 METAR CYSC 171300Z AUTO 25005KT 9SM FEW250 M15/M19 A3015 RMK SLP232 =
2019-02-17 12:00 METAR CYSC 171200Z AUTO 31004KT 9SM CLR M17/M20 A3011 RMK SLP217 =
2019-02-17 11:00 METAR CYSC 171100Z AUTO 32005KT 310V030 9SM FEW029 M15/M19 A3009 RMK SLP208 =
2019-02-17 10:00 METAR CYSC 171000Z AUTO 32005KT 270V340 9SM CLR M14/M18 A3008 RMK SLP205 =
2019-02-17 09:00 METAR CYSC 170900Z AUTO 30010KT 9SM BKN028 M12/M17 A3005 RMK SLP195 =
2019-02-17 08:00 METAR CYSC 170800Z AUTO 31007KT 9SM OVC028 M11/M16 A3003 RMK SLP188 =
2019-02-17 07:00 METAR CYSC 170700Z AUTO 30007KT 9SM -SN OVC028 M11/M16 A3002 RMK SLP185 =
2019-02-17 06:58 METAR CYSC 170658Z AUTO 30008KT 9SM -SN OVC028 M11/M16 A3002 RMK SLP183 =
2019-02-17 06:55 METAR CYSC 170655Z AUTO 30007KT 9SM OVC028 M11/M16 A3002 RMK SLP183 =
2019-02-17 06:30 METAR CYSC 170630Z AUTO 31008KT 9SM -SN OVC028 M10/M16 A3001 RMK SLP179 =
2019-02-17 06:22 METAR CYSC 170622Z AUTO 30007KT 9SM OVC028 M10/M15 A3001 RMK SLP179 =
2019-02-17 06:00 METAR CYSC 170600Z AUTO 30010KT 9SM -SN OVC028 M10/M15 A3000 RMK SLP176 =
2019-02-17 05:16 METAR CYSC 170516Z AUTO 29012G17KT 9SM -SN OVC028 M10/M15 A2999 RMK SLP172 =
2019-02-17 05:00 METAR CYSC 170500Z AUTO 29013G18KT 9SM OVC028 M10/M15 A2998 RMK SLP169 =
2019-02-17 04:49 METAR CYSC 170449Z AUTO 30010G15KT 9SM OVC028 M10/M14 A2997 RMK SLP166 =
2019-02-17 04:00 METAR CYSC 170400Z AUTO 29011KT 9SM -SN OVC028 M09/M13 A2996 RMK SLP161 =
2019-02-17 03:00 METAR CYSC 170300Z AUTO 29009G15KT 9SM -SN OVC030 M09/M13 A2996 RMK SLP161 =
2019-02-17 02:00 METAR CYSC 170200Z AUTO 31009KT 9SM -SN OVC034 M08/M13 A2995 RMK SLP158 =
2019-02-17 01:35 METAR CYSC 170135Z AUTO 30008KT 9SM -SN BKN038 M08/M13 A2994 RMK SLP156 =
2019-02-17 01:28 METAR CYSC 170128Z AUTO 29007KT 9SM BKN038 M08/M13 A2994 RMK SLP155 =
2019-02-17 01:00 METAR CYSC 170100Z AUTO 31013G18KT 9SM -SN BKN038 M08/M12 A2994 RMK SLP155 =
2019-02-17 00:39 METAR CYSC 170039Z AUTO 29013KT 7SM -SN SCT017 BKN040 M08/M11 A2994 RMK SLP155 =
2019-02-17 00:38 METAR CYSC 170038Z AUTO 29012G17KT 6SM -SN SCT015 BKN020 BKN040 M08/M11 A2994
                 RMK SLP155 =
2019-02-17 00:33 METAR CYSC 170033Z AUTO 30008KT 5SM -SN BKN017 BKN023 BKN038 M08/M10 A2994 RMK
                 SLP155 =
2019-02-17 00:13 METAR CYSC 170013Z AUTO 28011G16KT 6SM -SN BKN017 M07/M10 A2993 RMK SLP152 =
2019-02-17 00:07 METAR CYSC 170007Z AUTO 28012KT 5SM -SN BKN017 BKN022 M07/M10 A2993 RMK SLP151 =
2019-02-17 00:00 METAR CYSC 170000Z AUTO 28011KT 9SM -SN BKN019 BKN028 M07/M10 A2993 RMK SLP150 =
2019-02-16 23:58 METAR CYSC 162358Z AUTO 29012KT 9SM -SN BKN019 BKN028 M07/M10 A2993 RMK SLP150 =
2019-02-16 23:28 METAR CYSC 162328Z AUTO 26007KT 9SM -SN SCT016 BKN028 M07/M10 A2991 RMK SLP145 =
2019-02-16 23:13 METAR CYSC 162313Z AUTO 25008KT 6SM -SN BKN016 M07/M10 A2991 RMK SLP144 =
2019-02-16 23:02 METAR CYSC 162302Z AUTO 25008G16KT 5SM -SN BKN016 BKN025 M07/M10 A2990 RMK
                 SLP142 =
2019-02-16 23:00 METAR CYSC 162300Z AUTO 25009G16KT 6SM -SN BKN018 BKN025 M07/M10 A2990 RMK
                 SLP141 =
2019-02-16 22:53 METAR CYSC 162253Z AUTO 25011G16KT 9SM -SN BKN020 BKN027 M07/M10 A2989 RMK
                 SLP139 =
2019-02-16 22:42 METAR CYSC 162242Z AUTO 26010KT 9SM -SN SCT024 BKN031 M07/M10 A2989 RMK SLP137 =
2019-02-16 22:32 METAR CYSC 162232Z AUTO 25009KT 9SM -SN BKN024 BKN031 M07/M10 A2988 RMK SLP135 =
2019-02-16 22:10 METAR CYSC 162210Z AUTO 26012KT 9SM -SN SCT026 BKN042 M07/M11 A2987 RMK SLP129 =
2019-02-16 22:00 METAR CYSC 162200Z AUTO 27008G15KT 9SM FEW024 SCT030 BKN042 M07/M11 A2986 RMK
                 SLP127 =
2019-02-16 21:45 METAR CYSC 162145Z AUTO 27011KT 9SM BKN029 M07/M11 A2985 RMK SLP123 =
2019-02-16 21:07 METAR CYSC 162107Z AUTO 26011G18KT 9SM -SN SCT017 BKN026 BKN039 BKN240 M06/M09
                 A2983 RMK SLP116 =
2019-02-16 21:02 METAR CYSC 162102Z AUTO 25013G18KT 9SM -SN SCT017 BKN025 BKN039 M06/M09 A2982
                 RMK SLP115 =
2019-02-16 21:00 METAR CYSC 162100Z AUTO 26013G18KT 9SM -SN FEW010 BKN019 BKN039 M06/M09 A2982
                 RMK SLP115 =
2019-02-16 20:55 METAR CYSC 162055Z AUTO 26012G19KT 6SM -SN FEW008 BKN015 M06/M09 A2982 RMK
                 SLP113 =
2019-02-16 20:39 METAR CYSC 162039Z AUTO 27016G22KT 3SM -SN FEW008 BKN013 OVC019 M06/M09 A2981
                 RMK SLP109 =

Support USWX by starting your Amazon purchase here.